createdAt,value
2023-04-07T00:00:26.841Z,-0.60
2023-04-07T00:02:54.112Z,-0.30
2023-04-07T00:05:21.013Z,-0.60
2023-04-07T00:07:56.034Z,-0.40
2023-04-07T00:10:23.852Z,-0.70
2023-04-07T00:12:50.852Z,-0.60
2023-04-07T00:15:17.814Z,-0.40
2023-04-07T00:17:44.581Z,-0.40
2023-04-07T00:20:12.021Z,-0.40
2023-04-07T00:22:38.855Z,-0.40
2023-04-07T00:25:06.317Z,-0.30
2023-04-07T00:27:33.140Z,-0.20
2023-04-07T00:29:59.921Z,0.00
2023-04-07T00:32:26.789Z,-0.20
2023-04-07T00:34:53.556Z,-0.60
2023-04-07T00:37:20.619Z,-0.30
2023-04-07T00:39:47.453Z,-0.20
2023-04-07T00:42:14.336Z,-0.50
2023-04-07T00:44:41.346Z,-0.40
2023-04-07T00:47:08.228Z,-0.30
2023-04-07T00:49:36.671Z,-0.30
2023-04-07T00:52:04.575Z,-0.40
2023-04-07T00:54:31.434Z,-0.20
2023-04-07T00:56:58.257Z,-0.20
2023-04-07T00:59:25.825Z,-0.60
2023-04-07T01:02:15.807Z,-0.50
2023-04-07T01:05:26.351Z,-0.60
2023-04-07T01:08:05.675Z,-0.80
2023-04-07T01:10:51.546Z,-0.70
2023-04-07T01:13:43.031Z,-0.50
2023-04-07T01:16:15.546Z,-0.60
2023-04-07T01:18:48.116Z,-0.70
2023-04-07T01:21:17.371Z,-0.60
2023-04-07T01:24:16.080Z,-0.70
2023-04-07T01:26:43.516Z,-0.60
2023-04-07T01:29:22.517Z,-0.50
2023-04-07T01:31:51.218Z,-0.40
2023-04-07T01:34:19.236Z,-0.50
2023-04-07T01:36:47.036Z,-0.30
2023-04-07T01:39:14.405Z,-0.30
2023-04-07T01:41:43.106Z,-0.20
2023-04-07T01:44:10.535Z,0.00
2023-04-07T01:46:37.457Z,0.00
2023-04-07T01:49:05.621Z,-0.20
2023-04-07T01:51:33.833Z,-0.40
2023-04-07T01:54:02.899Z,-0.30
2023-04-07T01:56:29.780Z,-0.50
2023-04-07T01:58:56.597Z,-0.70
2023-04-07T02:01:23.490Z,-0.50
2023-04-07T02:04:11.336Z,-0.40
2023-04-07T02:06:50.054Z,-0.40
2023-04-07T02:09:19.349Z,-0.50
2023-04-07T02:11:46.435Z,-0.60
2023-04-07T02:14:15.667Z,-0.40
2023-04-07T02:16:43.504Z,-0.40
2023-04-07T02:19:10.499Z,-0.30
2023-04-07T02:21:39.877Z,-0.40
2023-04-07T02:24:07.131Z,-0.60
2023-04-07T02:26:36.155Z,-0.70
2023-04-07T02:29:04.325Z,-0.60
2023-04-07T02:31:31.314Z,-0.50
2023-04-07T02:33:58.142Z,-0.30
2023-04-07T02:36:24.975Z,-0.50
2023-04-07T02:38:51.751Z,-0.60
2023-04-07T02:41:18.619Z,-0.70
2023-04-07T02:43:45.568Z,-0.60
2023-04-07T02:46:13.705Z,-0.40
2023-04-07T02:48:41.570Z,-0.20
2023-04-07T02:51:08.341Z,-0.30
2023-04-07T02:53:35.457Z,-0.60
2023-04-07T02:56:02.319Z,-0.60
2023-04-07T02:58:29.168Z,-0.70
2023-04-07T03:00:56.037Z,-0.70
2023-04-07T03:03:23.054Z,-0.70
2023-04-07T03:05:49.976Z,-0.60
2023-04-07T03:08:16.733Z,-0.50
2023-04-07T03:10:44.028Z,-0.40
2023-04-07T03:13:12.922Z,-0.50
2023-04-07T03:15:40.066Z,-0.40
2023-04-07T03:18:07.020Z,-0.20
2023-04-07T03:20:33.860Z,-0.30
2023-04-07T03:23:00.625Z,-0.40
2023-04-07T03:25:27.622Z,-0.20
2023-04-07T03:27:54.417Z,-0.40
2023-04-07T03:30:21.809Z,-0.60
2023-04-07T03:32:48.633Z,-0.50
2023-04-07T03:35:15.534Z,-0.60
2023-04-07T03:37:42.408Z,-0.50
2023-04-07T03:40:09.708Z,-0.30
2023-04-07T03:42:36.525Z,-0.40
2023-04-07T03:45:03.388Z,-0.50
2023-04-07T03:47:30.493Z,-0.50
2023-04-07T03:49:57.470Z,-0.50
2023-04-07T03:52:24.287Z,-0.20
2023-04-07T03:54:51.253Z,-0.30
2023-04-07T03:57:18.040Z,-0.50
2023-04-07T03:59:44.856Z,-0.30
2023-04-07T04:02:12.107Z,-0.20
2023-04-07T04:04:39.082Z,-0.30
2023-04-07T04:07:05.878Z,-0.20
2023-04-07T04:09:32.657Z,-0.10
2023-04-07T04:11:59.385Z,-0.20
2023-04-07T04:14:26.307Z,-0.10
2023-04-07T04:16:53.942Z,0.00
2023-04-07T04:19:20.955Z,0.10
2023-04-07T04:21:47.782Z,0.00
2023-04-07T04:24:14.552Z,0.00
2023-04-07T04:26:41.464Z,0.00
2023-04-07T04:29:08.207Z,-0.10
2023-04-07T04:31:35.015Z,0.10
2023-04-07T04:34:01.856Z,0.30
2023-04-07T04:36:28.640Z,0.30
2023-04-07T04:38:55.472Z,0.40
2023-04-07T04:41:22.237Z,0.20
2023-04-07T04:43:49.005Z,0.10
2023-04-07T04:46:15.759Z,0.20
2023-04-07T04:48:42.539Z,0.20
2023-04-07T04:51:09.377Z,0.20
2023-04-07T04:53:36.148Z,0.30
2023-04-07T04:56:02.986Z,0.20
2023-04-07T04:58:29.739Z,0.40
2023-04-07T05:01:00.485Z,0.50
2023-04-07T05:03:29.301Z,0.40
2023-04-07T05:05:56.261Z,0.50
2023-04-07T05:08:23.145Z,0.60
2023-04-07T05:10:49.981Z,0.60
2023-04-07T05:13:16.845Z,0.70
2023-04-07T05:15:43.742Z,0.60
2023-04-07T05:18:10.536Z,0.50
2023-04-07T05:20:37.365Z,0.50
2023-04-07T05:23:04.529Z,0.60
2023-04-07T05:25:31.517Z,0.60
2023-04-07T05:27:59.849Z,0.50
2023-04-07T05:30:26.683Z,0.60
2023-04-07T05:32:54.138Z,0.70
2023-04-07T05:35:21.125Z,0.80
2023-04-07T05:37:47.866Z,0.80
2023-04-07T05:40:14.720Z,0.90
2023-04-07T05:42:41.945Z,0.90
2023-04-07T05:45:10.388Z,0.80
2023-04-07T05:47:37.200Z,0.90
2023-04-07T05:50:04.243Z,1.00
2023-04-07T05:52:31.481Z,1.10
2023-04-07T05:54:58.347Z,1.20
2023-04-07T05:57:27.478Z,1.10
2023-04-07T05:59:54.512Z,1.10
2023-04-07T06:02:21.444Z,1.30
2023-04-07T06:04:48.257Z,1.40
2023-04-07T06:07:15.120Z,1.50
2023-04-07T06:09:42.737Z,1.60
2023-04-07T06:12:10.816Z,1.80
2023-04-07T06:14:37.760Z,1.80
2023-04-07T06:17:04.610Z,1.80
2023-04-07T06:19:32.694Z,2.00
2023-04-07T06:21:59.534Z,2.10
2023-04-07T06:24:26.290Z,2.30
2023-04-07T06:26:53.278Z,2.40
2023-04-07T06:29:20.647Z,2.60
2023-04-07T06:31:47.410Z,2.80
2023-04-07T06:34:14.159Z,3.00
2023-04-07T06:36:41.342Z,3.30
2023-04-07T06:39:08.136Z,3.40
2023-04-07T06:41:34.895Z,3.70
2023-04-07T06:44:01.643Z,3.90
2023-04-07T06:46:28.598Z,4.20
2023-04-07T06:48:55.524Z,4.60
2023-04-07T06:51:22.299Z,4.90
2023-04-07T06:53:49.298Z,5.10
2023-04-07T06:56:16.301Z,5.30
2023-04-07T06:58:43.158Z,5.40
2023-04-07T07:01:10.132Z,5.50
2023-04-07T07:03:37.101Z,5.70
2023-04-07T07:06:04.093Z,5.80
2023-04-07T07:08:31.132Z,5.90
2023-04-07T07:10:58.032Z,5.90
2023-04-07T07:13:26.612Z,6.00
2023-04-07T07:15:53.791Z,6.30
2023-04-07T07:18:20.837Z,6.70
2023-04-07T07:20:47.708Z,7.10
2023-04-07T07:23:14.618Z,7.20
2023-04-07T07:25:41.664Z,7.20
2023-04-07T07:28:09.690Z,7.30
2023-04-07T07:30:36.546Z,7.40
2023-04-07T07:33:03.632Z,7.70
2023-04-07T07:35:32.723Z,7.80
2023-04-07T07:37:59.554Z,7.90
2023-04-07T07:40:26.404Z,8.00
2023-04-07T07:42:53.226Z,8.10
2023-04-07T07:45:20.123Z,8.30
2023-04-07T07:47:47.046Z,8.60
2023-04-07T07:50:13.876Z,8.60
2023-04-07T07:52:40.873Z,8.50
2023-04-07T07:55:08.104Z,8.70
2023-04-07T07:57:35.086Z,8.90
2023-04-07T08:00:02.167Z,8.90
2023-04-07T08:02:32.689Z,9.10
2023-04-07T08:05:00.534Z,9.30
2023-04-07T08:07:27.466Z,9.20
2023-04-07T08:09:54.301Z,9.00
2023-04-07T08:12:21.547Z,8.80
2023-04-07T08:14:49.414Z,8.80
2023-04-07T08:17:17.589Z,8.80
2023-04-07T08:19:44.488Z,9.00
2023-04-07T08:22:11.269Z,9.20
2023-04-07T08:24:38.014Z,9.40
2023-04-07T08:27:04.817Z,9.50
2023-04-07T08:29:32.422Z,9.60
2023-04-07T08:31:59.310Z,9.80
2023-04-07T08:34:26.512Z,9.50
2023-04-07T08:36:53.234Z,9.60
2023-04-07T08:39:20.021Z,9.60
2023-04-07T08:41:48.972Z,9.60
2023-04-07T08:44:16.597Z,9.60
2023-04-07T08:46:43.988Z,9.60
2023-04-07T08:49:14.114Z,9.80
2023-04-07T08:51:49.016Z,9.80
2023-04-07T08:54:19.087Z,10.00
2023-04-07T08:56:46.382Z,10.20
2023-04-07T08:59:14.895Z,10.10
2023-04-07T09:01:42.225Z,10.10
2023-04-07T09:04:10.910Z,10.00
2023-04-07T09:06:38.322Z,10.00
2023-04-07T09:09:08.360Z,10.20
2023-04-07T09:11:40.743Z,10.30
2023-04-07T09:14:07.946Z,10.50
2023-04-07T09:16:35.565Z,10.30
2023-04-07T09:19:02.467Z,10.20
2023-04-07T09:21:49.012Z,10.40
2023-04-07T09:24:27.377Z,10.70
2023-04-07T09:27:17.869Z,11.00
2023-04-07T09:29:46.900Z,11.00
2023-04-07T09:32:36.063Z,10.60
2023-04-07T09:35:02.852Z,10.50
2023-04-07T09:37:29.666Z,11.00
2023-04-07T09:39:56.418Z,11.40
2023-04-07T09:42:23.331Z,11.30
2023-04-07T09:44:50.303Z,11.30
2023-04-07T09:47:18.017Z,11.20
2023-04-07T09:49:53.629Z,11.20
2023-04-07T09:52:25.505Z,11.50
2023-04-07T09:54:52.941Z,11.50
2023-04-07T09:57:21.189Z,11.00
2023-04-07T09:59:48.882Z,11.00
2023-04-07T10:02:16.218Z,11.50
2023-04-07T10:04:43.903Z,11.00
2023-04-07T10:07:10.715Z,11.20
2023-04-07T10:09:37.584Z,11.80
2023-04-07T10:12:06.611Z,11.70
2023-04-07T10:14:35.602Z,11.50
2023-04-07T10:17:04.209Z,11.30
2023-04-07T10:19:36.054Z,11.30
2023-04-07T10:22:06.197Z,11.60
2023-04-07T10:24:47.184Z,11.60
2023-04-07T10:27:24.138Z,11.70
2023-04-07T10:29:52.791Z,11.30
2023-04-07T10:32:19.935Z,11.20
2023-04-07T10:34:55.925Z,11.40
2023-04-07T10:37:24.149Z,11.60
2023-04-07T10:40:11.856Z,11.60
2023-04-07T10:42:41.503Z,11.90
2023-04-07T10:45:12.946Z,12.60
2023-04-07T10:47:58.328Z,12.80
2023-04-07T10:50:25.885Z,12.50
2023-04-07T10:53:07.247Z,12.40
2023-04-07T10:55:41.738Z,12.70
2023-04-07T10:58:16.579Z,13.00
2023-04-07T11:01:04.680Z,12.40
2023-04-07T11:03:34.718Z,12.20
2023-04-07T11:06:12.770Z,12.30
2023-04-07T11:08:46.746Z,12.40
2023-04-07T11:11:16.627Z,13.00
2023-04-07T11:13:49.312Z,12.50
2023-04-07T11:16:19.067Z,12.80
2023-04-07T11:18:50.050Z,13.00
2023-04-07T11:21:20.174Z,13.20
2023-04-07T11:23:48.009Z,13.20
2023-04-07T11:26:16.095Z,13.40
2023-04-07T11:28:52.486Z,13.10
2023-04-07T11:31:26.221Z,12.40
2023-04-07T11:33:58.986Z,12.50
2023-04-07T11:36:34.106Z,12.60
2023-04-07T11:39:02.464Z,12.80
2023-04-07T11:41:31.224Z,12.80
2023-04-07T11:44:11.694Z,13.00
2023-04-07T11:46:56.540Z,13.30
2023-04-07T11:49:25.088Z,13.30
2023-04-07T11:52:18.282Z,13.40
2023-04-07T11:54:47.243Z,12.80
2023-04-07T11:57:14.568Z,12.70
2023-04-07T11:59:41.898Z,12.30
2023-04-07T12:02:09.641Z,12.90
2023-04-07T12:04:39.964Z,13.30
2023-04-07T12:07:11.707Z,13.00
2023-04-07T12:09:38.957Z,13.40
2023-04-07T12:12:07.927Z,14.90
2023-04-07T12:14:36.088Z,14.40
2023-04-07T12:17:03.929Z,14.50
2023-04-07T12:19:39.704Z,15.10
2023-04-07T12:22:06.627Z,14.80
2023-04-07T12:24:33.390Z,14.80
2023-04-07T12:27:00.390Z,15.00
2023-04-07T12:29:27.955Z,14.80
2023-04-07T12:31:54.773Z,15.10
2023-04-07T12:34:21.666Z,15.30
2023-04-07T12:36:48.671Z,15.50
2023-04-07T12:39:16.109Z,15.30
2023-04-07T12:41:44.153Z,15.40
2023-04-07T12:44:11.793Z,14.10
2023-04-07T12:46:38.582Z,14.60
2023-04-07T12:49:05.835Z,14.90
2023-04-07T12:51:33.800Z,15.20
2023-04-07T12:54:03.617Z,14.30
2023-04-07T12:56:30.701Z,14.60
2023-04-07T12:58:57.489Z,14.30
2023-04-07T13:01:24.403Z,13.60
2023-04-07T13:03:51.863Z,13.10
2023-04-07T13:06:19.440Z,12.90
2023-04-07T13:08:46.264Z,12.90
2023-04-07T13:11:13.148Z,12.90
2023-04-07T13:13:39.953Z,12.60
2023-04-07T13:16:06.865Z,12.80
2023-04-07T13:18:33.671Z,13.00
2023-04-07T13:21:33.729Z,13.20
2023-04-07T13:23:48.622Z,12.90
2023-04-07T13:26:15.501Z,12.90
2023-04-07T13:28:45.866Z,12.90
2023-04-07T13:31:16.083Z,13.00
2023-04-07T13:33:43.231Z,13.00
2023-04-07T13:36:10.350Z,13.20
2023-04-07T13:38:37.326Z,13.00
2023-04-07T13:41:04.194Z,12.50
2023-04-07T13:43:31.028Z,12.70
2023-04-07T13:45:57.856Z,12.70
2023-04-07T13:48:24.821Z,12.50
2023-04-07T13:50:51.616Z,12.40
2023-04-07T13:53:19.228Z,12.70
2023-04-07T13:55:46.419Z,12.60
2023-04-07T13:58:13.240Z,12.40
2023-04-07T14:00:40.416Z,12.30
2023-04-07T14:03:08.233Z,12.20
2023-04-07T14:05:36.010Z,12.40
2023-04-07T14:08:02.797Z,12.40
2023-04-07T14:10:29.575Z,13.00
2023-04-07T14:12:56.366Z,13.10
2023-04-07T14:15:23.297Z,13.10
2023-04-07T14:17:50.103Z,13.00
2023-04-07T14:20:17.021Z,13.10
2023-04-07T14:22:44.531Z,13.50
2023-04-07T14:25:11.823Z,13.80
2023-04-07T14:27:38.592Z,13.70
2023-04-07T14:30:06.045Z,13.70
2023-04-07T14:32:34.434Z,13.50
2023-04-07T14:35:01.760Z,13.40
2023-04-07T14:37:29.063Z,13.40
2023-04-07T14:42:26.075Z,13.40
2023-04-07T14:44:53.219Z,13.50
2023-04-07T14:47:20.249Z,13.10
2023-04-07T14:49:47.476Z,13.20
2023-04-07T14:52:14.678Z,13.10
2023-04-07T14:54:41.528Z,13.20
2023-04-07T14:57:08.300Z,12.70
2023-04-07T14:59:35.203Z,13.00
2023-04-07T15:02:02.145Z,12.60
2023-04-07T15:04:29.086Z,12.40
2023-04-07T15:06:56.280Z,12.50
2023-04-07T15:09:23.052Z,12.50
2023-04-07T15:11:49.826Z,12.40
2023-04-07T15:14:16.661Z,12.70
2023-04-07T15:16:44.073Z,12.30
2023-04-07T15:19:10.886Z,11.90
2023-04-07T15:21:37.650Z,11.90
2023-04-07T15:24:04.442Z,11.70
2023-04-07T15:26:31.247Z,11.60
2023-04-07T15:28:58.030Z,11.60
2023-04-07T15:31:27.129Z,11.50
2023-04-07T15:33:54.258Z,11.20
2023-04-07T15:36:21.035Z,10.90
2023-04-07T15:38:47.858Z,10.70
2023-04-07T15:41:18.671Z,10.60
2023-04-07T15:43:45.560Z,10.40
2023-04-07T15:46:12.386Z,10.40
2023-04-07T15:48:39.211Z,10.30
2023-04-07T15:51:06.044Z,10.20
2023-04-07T15:53:32.873Z,10.10
2023-04-07T15:55:59.658Z,10.00
2023-04-07T15:58:26.574Z,9.80
2023-04-07T16:00:53.468Z,9.70
2023-04-07T16:03:20.614Z,9.80
2023-04-07T16:05:47.658Z,9.50
2023-04-07T16:08:14.527Z,9.40
2023-04-07T16:10:42.263Z,9.20
2023-04-07T16:13:09.799Z,9.10
2023-04-07T16:15:40.111Z,9.20
2023-04-07T16:18:10.829Z,9.10
2023-04-07T16:20:37.660Z,9.00
2023-04-07T16:23:04.496Z,9.00
2023-04-07T16:25:31.377Z,9.10
2023-04-07T16:27:58.209Z,8.90
2023-04-07T16:30:25.421Z,8.80
2023-04-07T16:32:52.565Z,8.80
2023-04-07T16:35:19.561Z,8.60
2023-04-07T16:37:49.730Z,8.70
2023-04-07T16:40:16.719Z,8.60
2023-04-07T16:42:43.557Z,8.70
2023-04-07T16:45:11.202Z,8.60
2023-04-07T16:47:38.724Z,8.60
2023-04-07T16:50:05.993Z,8.70
2023-04-07T16:52:32.833Z,8.60
2023-04-07T16:55:00.080Z,8.60
2023-04-07T16:57:26.860Z,8.60
2023-04-07T16:59:53.792Z,8.40
2023-04-07T17:02:20.817Z,8.40
2023-04-07T17:04:47.829Z,8.30
2023-04-07T17:07:14.710Z,8.30
2023-04-07T17:09:41.525Z,8.20
2023-04-07T17:12:08.404Z,8.30
2023-04-07T17:14:35.547Z,8.30
2023-04-07T17:17:02.430Z,8.20
2023-04-07T17:19:29.595Z,8.20
2023-04-07T17:21:56.631Z,8.10
2023-04-07T17:24:23.842Z,8.00
2023-04-07T17:26:50.889Z,8.10
2023-04-07T17:29:18.182Z,8.10
2023-04-07T17:31:45.006Z,8.10
2023-04-07T17:34:12.018Z,8.00
2023-04-07T17:36:39.241Z,7.90
2023-04-07T17:39:06.058Z,8.00
2023-04-07T17:41:34.725Z,7.90
2023-04-07T17:44:02.093Z,7.80
2023-04-07T17:46:29.172Z,7.70
2023-04-07T17:48:59.019Z,7.80
2023-04-07T17:51:27.023Z,7.70
2023-04-07T17:53:54.340Z,7.60
2023-04-07T17:56:21.653Z,7.60
2023-04-07T17:58:48.626Z,7.50
2023-04-07T18:01:16.886Z,7.50
2023-04-07T18:03:44.444Z,7.50
2023-04-07T18:06:16.468Z,7.50
2023-04-07T18:08:46.337Z,7.40
2023-04-07T18:11:13.515Z,7.40
2023-04-07T18:13:40.407Z,7.40
2023-04-07T18:16:11.844Z,7.40
2023-04-07T18:18:38.927Z,7.30
2023-04-07T18:21:08.966Z,7.20
2023-04-07T18:23:35.966Z,7.20
2023-04-07T18:26:04.876Z,7.30
2023-04-07T18:28:31.814Z,7.30
2023-04-07T18:31:07.722Z,7.20
2023-04-07T18:33:36.332Z,7.20
2023-04-07T18:36:07.173Z,7.20
2023-04-07T18:38:35.457Z,7.00
2023-04-07T18:41:02.731Z,7.10
2023-04-07T18:43:30.247Z,7.20
2023-04-07T18:45:57.086Z,7.20
2023-04-07T18:48:24.000Z,7.20
2023-04-07T18:50:52.788Z,7.00
2023-04-07T18:53:24.328Z,7.00
2023-04-07T18:55:51.952Z,7.00
2023-04-07T18:58:20.071Z,7.10
2023-04-07T19:00:49.860Z,6.90
2023-04-07T19:03:17.062Z,6.80
2023-04-07T19:05:47.204Z,6.70
2023-04-07T19:08:15.890Z,6.80
2023-04-07T19:10:43.569Z,6.80
2023-04-07T19:13:10.360Z,6.80
2023-04-07T19:15:39.328Z,6.70
2023-04-07T19:18:07.949Z,6.50
2023-04-07T19:20:34.809Z,6.50
2023-04-07T19:23:01.922Z,6.20
2023-04-07T19:25:29.829Z,6.10
2023-04-07T19:27:57.565Z,6.30
2023-04-07T19:30:24.374Z,6.10
2023-04-07T19:32:51.332Z,5.70
2023-04-07T19:35:18.353Z,5.60
2023-04-07T19:37:47.414Z,5.50
2023-04-07T19:40:15.069Z,5.60
2023-04-07T19:42:42.210Z,5.60
2023-04-07T19:45:09.579Z,5.40
2023-04-07T19:47:36.799Z,5.50
2023-04-07T19:50:05.191Z,5.60
2023-04-07T19:52:32.640Z,5.70
2023-04-07T19:55:01.036Z,5.60
2023-04-07T19:57:28.533Z,5.50
2023-04-07T19:59:55.376Z,5.30
2023-04-07T20:02:22.246Z,5.30
2023-04-07T20:04:49.212Z,5.20
2023-04-07T20:07:16.179Z,5.10
2023-04-07T20:09:43.130Z,5.10
2023-04-07T20:12:10.201Z,5.20
2023-04-07T20:14:37.784Z,5.30
2023-04-07T20:17:04.749Z,5.30
2023-04-07T20:19:31.634Z,5.30
2023-04-07T20:21:58.436Z,5.20
2023-04-07T20:24:25.792Z,5.30
2023-04-07T20:26:52.677Z,5.40
2023-04-07T20:29:21.102Z,5.30
2023-04-07T20:31:49.036Z,5.30
2023-04-07T20:34:16.404Z,5.30
2023-04-07T20:36:43.239Z,5.20
2023-04-07T20:39:10.048Z,5.30
2023-04-07T20:41:37.279Z,5.40
2023-04-07T20:44:04.358Z,5.50
2023-04-07T20:46:33.483Z,5.50
2023-04-07T20:49:00.834Z,5.40
2023-04-07T20:51:29.006Z,5.20
2023-04-07T20:53:55.869Z,4.90
2023-04-07T20:56:23.779Z,4.80
2023-04-07T20:58:50.945Z,4.80
2023-04-07T21:01:18.001Z,4.90
2023-04-07T21:03:45.098Z,5.00
2023-04-07T21:06:12.076Z,4.90
2023-04-07T21:08:39.466Z,4.80
2023-04-07T21:11:06.264Z,4.80
2023-04-07T21:13:33.028Z,4.80
2023-04-07T21:16:01.349Z,4.80
2023-04-07T21:18:28.358Z,4.70
2023-04-07T21:20:57.725Z,4.60
2023-04-07T21:23:24.594Z,4.50
2023-04-07T21:25:51.434Z,4.60
2023-04-07T21:28:18.243Z,4.80
2023-04-07T21:30:45.186Z,5.00
2023-04-07T21:33:13.623Z,4.90
2023-04-07T21:35:40.614Z,4.60
2023-04-07T21:38:07.485Z,4.70
2023-04-07T21:40:34.232Z,4.70
2023-04-07T21:43:01.802Z,4.80
2023-04-07T21:45:29.709Z,4.90
2023-04-07T21:47:56.747Z,4.50
2023-04-07T21:50:24.154Z,4.40
2023-04-07T21:52:51.793Z,4.40
2023-04-07T21:55:18.882Z,4.50
2023-04-07T21:57:45.881Z,4.50
2023-04-07T22:00:14.099Z,4.50
2023-04-07T22:02:41.499Z,4.50
2023-04-07T22:05:08.940Z,4.60
2023-04-07T22:07:36.227Z,4.60
2023-04-07T22:10:03.528Z,4.60
2023-04-07T22:12:30.381Z,4.60
2023-04-07T22:14:57.166Z,4.70
2023-04-07T22:17:23.936Z,4.80
2023-04-07T22:19:50.812Z,4.70
2023-04-07T22:22:17.663Z,4.60
2023-04-07T22:24:44.485Z,4.50
2023-04-07T22:27:11.339Z,4.50
2023-04-07T22:29:38.118Z,4.60
2023-04-07T22:32:05.191Z,4.60
2023-04-07T22:34:31.970Z,4.70
2023-04-07T22:36:58.996Z,4.70
2023-04-07T22:39:26.843Z,4.50
2023-04-07T22:41:53.640Z,4.50
2023-04-07T22:44:20.847Z,4.60
2023-04-07T22:46:47.801Z,4.60
2023-04-07T22:49:14.704Z,4.60
2023-04-07T22:51:41.613Z,4.40
2023-04-07T22:54:08.410Z,4.60
2023-04-07T22:56:35.373Z,4.50
2023-04-07T22:59:05.684Z,4.40
2023-04-07T23:01:33.177Z,4.50
2023-04-07T23:04:00.290Z,4.50
2023-04-07T23:06:28.841Z,4.20
2023-04-07T23:08:56.563Z,4.20
2023-04-07T23:11:23.729Z,4.40
2023-04-07T23:13:51.288Z,4.50
2023-04-07T23:16:18.228Z,4.50
2023-04-07T23:18:45.031Z,4.50
2023-04-07T23:21:12.431Z,4.40
2023-04-07T23:23:39.627Z,4.40
2023-04-07T23:26:09.074Z,4.60
2023-04-07T23:28:35.945Z,4.30
2023-04-07T23:31:02.819Z,4.40
2023-04-07T23:33:31.670Z,4.50
2023-04-07T23:35:58.998Z,4.70
2023-04-07T23:38:26.299Z,4.70
2023-04-07T23:40:53.469Z,4.60
2023-04-07T23:43:20.329Z,4.30
2023-04-07T23:45:47.203Z,4.30
2023-04-07T23:48:14.999Z,4.40
2023-04-07T23:50:41.769Z,4.50
2023-04-07T23:53:08.661Z,4.40
2023-04-07T23:55:35.475Z,4.20
2023-04-07T23:58:02.349Z,4.30
